createdAt,value
2019-01-20T00:00:16.816Z,42.55
2019-01-20T00:02:49.686Z,39.70
2019-01-20T00:05:21.006Z,40.90
2019-01-20T00:07:52.160Z,42.83
2019-01-20T00:10:23.592Z,42.23
2019-01-20T00:12:54.772Z,44.35
2019-01-20T00:15:26.193Z,45.83
2019-01-20T00:17:57.350Z,43.02
2019-01-20T00:20:28.788Z,42.05
2019-01-20T00:23:00.528Z,46.30
2019-01-20T00:25:31.830Z,46.15
2019-01-20T00:28:02.884Z,47.65
2019-01-20T00:30:34.278Z,47.83
2019-01-20T00:33:05.363Z,44.88
2019-01-20T00:35:36.778Z,43.17
2019-01-20T00:38:07.901Z,41.23
2019-01-20T00:40:39.177Z,50.05
2019-01-20T00:43:10.253Z,52.58
2019-01-20T00:45:41.652Z,46.28
2019-01-20T00:48:12.798Z,46.75
2019-01-20T00:50:44.248Z,44.08
2019-01-20T00:53:15.340Z,43.25
2019-01-20T00:55:46.750Z,48.00
2019-01-20T00:58:17.828Z,43.98
2019-01-20T01:00:49.152Z,48.95
2019-01-20T01:03:20.216Z,48.35
2019-01-20T01:05:51.428Z,41.25
2019-01-20T01:08:22.600Z,42.35
2019-01-20T01:10:54.020Z,44.53
2019-01-20T01:13:26.670Z,45.73
2019-01-20T01:15:58.032Z,41.75
2019-01-20T01:18:29.112Z,46.15
2019-01-20T01:21:00.544Z,46.58
2019-01-20T01:23:31.642Z,46.83
2019-01-20T01:26:02.934Z,43.35
2019-01-20T01:28:34.062Z,43.02
2019-01-20T01:31:05.857Z,47.75
2019-01-20T01:33:37.356Z,43.08
2019-01-20T01:36:08.642Z,45.17
2019-01-20T01:38:39.729Z,44.13
2019-01-20T01:41:12.156Z,45.38
2019-01-20T01:43:43.321Z,42.70
2019-01-20T01:46:14.668Z,45.70
2019-01-20T01:48:45.813Z,46.45
2019-01-20T01:51:17.067Z,43.83
2019-01-20T01:53:48.206Z,47.15
2019-01-20T01:56:19.540Z,47.43
2019-01-20T01:58:50.720Z,47.00
2019-01-20T02:01:22.032Z,47.62
2019-01-20T02:03:53.174Z,45.75
2019-01-20T02:06:24.540Z,47.20
2019-01-20T02:08:55.696Z,47.27
2019-01-20T02:11:27.120Z,47.85
2019-01-20T02:13:58.186Z,43.45
2019-01-20T02:16:29.612Z,46.65
2019-01-20T02:19:00.891Z,47.17
2019-01-20T02:21:32.312Z,48.40
2019-01-20T02:24:03.416Z,50.75
2019-01-20T02:26:35.120Z,49.13
2019-01-20T02:29:06.365Z,46.15
2019-01-20T02:31:37.659Z,47.55
2019-01-20T02:34:08.852Z,45.90
2019-01-20T02:36:40.313Z,46.48
2019-01-20T02:39:11.384Z,46.98
2019-01-20T02:41:42.980Z,52.98
2019-01-20T02:44:14.080Z,48.98
2019-01-20T02:46:45.648Z,47.03
2019-01-20T02:49:16.748Z,49.15
2019-01-20T02:51:48.182Z,47.80
2019-01-20T02:54:19.283Z,48.25
2019-01-20T02:56:50.706Z,49.38
2019-01-20T02:59:21.902Z,52.15
2019-01-20T03:01:53.122Z,48.90
2019-01-20T03:04:25.644Z,44.25
2019-01-20T03:06:57.233Z,48.17
2019-01-20T03:09:28.289Z,46.30
2019-01-20T03:12:03.683Z,51.75
2019-01-20T03:14:32.392Z,49.35
2019-01-20T03:17:03.730Z,44.25
2019-01-20T03:19:34.968Z,49.55
2019-01-20T03:22:06.860Z,48.25
2019-01-20T03:24:38.142Z,46.15
2019-01-20T03:27:08.862Z,47.03
2019-01-20T03:29:39.951Z,44.40
2019-01-20T03:32:11.361Z,45.43
2019-01-20T03:34:42.496Z,47.40
2019-01-20T03:37:13.839Z,50.20
2019-01-20T03:39:46.155Z,53.25
2019-01-20T03:42:17.444Z,48.20
2019-01-20T03:44:48.702Z,48.45
2019-01-20T03:47:20.150Z,47.78
2019-01-20T03:49:51.238Z,51.40
2019-01-20T03:52:22.532Z,48.00
2019-01-20T03:54:53.736Z,50.83
2019-01-20T03:57:25.169Z,47.45
2019-01-20T03:59:56.277Z,50.43
2019-01-20T04:02:28.040Z,51.08
2019-01-20T04:05:11.175Z,51.70
2019-01-20T04:07:42.524Z,46.98
2019-01-20T04:10:14.268Z,47.33
2019-01-20T04:12:45.540Z,48.85
2019-01-20T04:15:17.022Z,46.68
2019-01-20T04:17:48.324Z,48.02
2019-01-20T04:20:19.902Z,48.30
2019-01-20T04:22:51.223Z,47.35
2019-01-20T04:25:22.359Z,51.28
2019-01-20T04:27:54.846Z,53.78
2019-01-20T04:30:25.978Z,45.17
2019-01-20T04:32:57.444Z,52.33
2019-01-20T04:35:28.500Z,47.43
2019-01-20T04:37:59.932Z,46.18
2019-01-20T04:40:31.013Z,46.40
2019-01-20T04:43:02.536Z,43.98
2019-01-20T04:45:33.644Z,45.65
2019-01-20T04:48:05.027Z,46.45
2019-01-20T04:50:36.116Z,48.73
2019-01-20T04:53:08.601Z,52.53
2019-01-20T04:55:39.806Z,50.90
2019-01-20T04:58:11.550Z,51.42
2019-01-20T05:00:42.694Z,52.85
2019-01-20T05:03:13.974Z,49.00
2019-01-20T05:05:45.111Z,53.73
2019-01-20T05:08:16.440Z,48.05
2019-01-20T05:10:47.513Z,49.58
2019-01-20T05:13:18.787Z,46.28
2019-01-20T05:15:49.855Z,50.43
2019-01-20T05:18:21.215Z,50.50
2019-01-20T05:20:52.325Z,48.83
2019-01-20T05:23:23.779Z,48.23
2019-01-20T05:25:54.859Z,46.68
2019-01-20T05:28:26.204Z,48.52
2019-01-20T05:30:57.385Z,44.18
2019-01-20T05:33:28.817Z,50.92
2019-01-20T05:36:00.036Z,50.17
2019-01-20T05:38:31.413Z,47.33
2019-01-20T05:41:02.474Z,45.00
2019-01-20T05:43:33.818Z,49.98
2019-01-20T05:46:05.056Z,53.02
2019-01-20T05:48:36.536Z,50.35
2019-01-20T05:51:07.685Z,50.33
2019-01-20T05:53:39.194Z,51.75
2019-01-20T05:56:10.318Z,53.08
2019-01-20T05:58:41.564Z,51.35
2019-01-20T06:01:12.610Z,47.75
2019-01-20T06:03:43.979Z,48.40
2019-01-20T06:06:15.102Z,50.05
2019-01-20T06:08:46.470Z,50.80
2019-01-20T06:11:17.667Z,51.33
2019-01-20T06:13:48.982Z,52.25
2019-01-20T06:16:20.192Z,51.00
2019-01-20T06:18:51.461Z,52.98
2019-01-20T06:21:22.566Z,57.67
2019-01-20T06:23:53.864Z,56.02
2019-01-20T06:26:24.977Z,58.35
2019-01-20T06:28:56.364Z,54.25
2019-01-20T06:31:27.428Z,58.98
2019-01-20T06:33:58.848Z,55.20
2019-01-20T06:36:29.921Z,50.67
2019-01-20T06:39:01.743Z,50.00
2019-01-20T06:41:34.426Z,49.20
2019-01-20T06:44:05.792Z,47.60
2019-01-20T06:46:36.926Z,51.65
2019-01-20T06:49:08.265Z,51.15
2019-01-20T06:51:39.351Z,45.90
2019-01-20T06:54:10.980Z,49.13
2019-01-20T06:56:42.057Z,50.55
2019-01-20T06:59:13.256Z,48.52
2019-01-20T07:01:44.332Z,45.63
2019-01-20T07:04:15.852Z,49.88
2019-01-20T07:06:46.908Z,50.08
2019-01-20T07:09:18.256Z,51.95
2019-01-20T07:11:49.342Z,47.83
2019-01-20T07:14:20.752Z,48.02
2019-01-20T07:16:51.942Z,50.43
2019-01-20T07:19:23.377Z,46.48
2019-01-20T07:21:54.523Z,50.05
2019-01-20T07:24:25.728Z,47.43
2019-01-20T07:26:56.850Z,52.43
2019-01-20T07:29:28.225Z,48.83
2019-01-20T07:31:59.312Z,58.48
2019-01-20T07:34:30.571Z,53.15
2019-01-20T07:37:01.651Z,53.95
2019-01-20T07:39:33.107Z,52.20
2019-01-20T07:42:04.392Z,48.83
2019-01-20T07:44:35.591Z,52.27
2019-01-20T07:47:06.739Z,50.48
2019-01-20T07:49:37.903Z,78.22
2019-01-20T07:52:09.062Z,100.92
2019-01-20T07:54:40.382Z,85.07
2019-01-20T07:57:11.452Z,93.05
2019-01-20T07:59:42.878Z,77.35
2019-01-20T08:02:13.943Z,73.25
2019-01-20T08:04:45.372Z,67.70
2019-01-20T08:07:16.435Z,73.28
2019-01-20T08:09:47.863Z,82.67
2019-01-20T08:12:23.540Z,86.47
2019-01-20T08:14:53.446Z,91.82
2019-01-20T08:17:24.567Z,107.95
2019-01-20T08:19:55.923Z,89.60
2019-01-20T08:22:27.134Z,229.03
2019-01-20T08:24:58.342Z,187.47
2019-01-20T08:27:29.599Z,175.25
2019-01-20T08:30:00.922Z,80.35
2019-01-20T08:32:32.201Z,65.03
2019-01-20T08:35:03.832Z,61.05
2019-01-20T08:37:34.891Z,72.37
2019-01-20T08:40:08.673Z,56.00
2019-01-20T08:42:40.234Z,55.08
2019-01-20T08:45:33.294Z,58.00
2019-01-20T08:48:09.757Z,50.73
2019-01-20T08:50:41.003Z,64.53
2019-01-20T08:53:12.140Z,56.55
2019-01-20T08:55:43.408Z,60.65
2019-01-20T08:58:14.838Z,59.38
2019-01-20T09:00:46.324Z,57.58
2019-01-20T09:03:17.471Z,59.63
2019-01-20T09:05:49.007Z,58.33
2019-01-20T09:08:20.381Z,61.55
2019-01-20T09:10:51.645Z,72.40
2019-01-20T09:13:22.879Z,64.67
2019-01-20T09:15:54.131Z,64.35
2019-01-20T09:18:25.209Z,63.15
2019-01-20T09:20:56.585Z,62.45
2019-01-20T09:23:27.838Z,63.35
2019-01-20T09:25:59.396Z,64.05
2019-01-20T09:28:30.633Z,61.50
2019-01-20T09:31:02.590Z,62.43
2019-01-20T09:33:34.831Z,59.77
2019-01-20T09:36:06.484Z,64.58
2019-01-20T09:38:37.587Z,55.52
2019-01-20T09:41:08.931Z,63.50
2019-01-20T09:43:46.858Z,60.28
2019-01-20T09:46:13.679Z,64.40
2019-01-20T09:48:44.761Z,55.67
2019-01-20T09:51:16.041Z,57.35
2019-01-20T09:53:47.425Z,61.95
2019-01-20T09:56:18.711Z,59.73
2019-01-20T09:58:49.761Z,53.55
2019-01-20T10:01:21.136Z,58.08
2019-01-20T10:03:52.276Z,53.95
2019-01-20T10:06:23.536Z,52.38
2019-01-20T10:08:56.526Z,54.00
2019-01-20T10:11:28.730Z,67.30
2019-01-20T10:13:59.930Z,55.73
2019-01-20T10:16:31.160Z,54.55
2019-01-20T10:19:02.382Z,54.58
2019-01-20T10:21:33.660Z,61.05
2019-01-20T10:24:04.978Z,52.67
2019-01-20T10:26:38.002Z,48.58
2019-01-20T10:29:09.275Z,47.40
2019-01-20T10:31:40.612Z,44.00
2019-01-20T10:34:11.758Z,41.60
2019-01-20T10:36:43.303Z,48.00
2019-01-20T10:39:14.372Z,41.90
2019-01-20T10:41:45.818Z,43.00
2019-01-20T10:44:16.999Z,43.70
2019-01-20T10:46:48.500Z,46.30
2019-01-20T10:49:19.598Z,47.67
2019-01-20T10:51:50.906Z,44.30
2019-01-20T10:54:33.182Z,44.67
2019-01-20T10:57:04.451Z,41.30
2019-01-20T10:59:35.608Z,41.13
2019-01-20T11:02:06.864Z,39.27
2019-01-20T11:04:37.911Z,35.93
2019-01-20T11:07:10.676Z,33.80
2019-01-20T11:09:41.834Z,35.90
2019-01-20T11:12:13.168Z,39.07
2019-01-20T11:14:44.346Z,41.43
2019-01-20T11:17:15.755Z,39.57
2019-01-20T11:19:46.905Z,36.70
2019-01-20T11:22:18.451Z,36.07
2019-01-20T11:24:49.609Z,33.00
2019-01-20T11:27:20.963Z,39.63
2019-01-20T11:29:52.064Z,37.53
2019-01-20T11:32:23.459Z,34.83
2019-01-20T11:34:54.726Z,34.63
2019-01-20T11:37:26.039Z,36.00
2019-01-20T11:39:57.216Z,33.00
2019-01-20T11:42:28.557Z,37.80
2019-01-20T11:44:59.657Z,35.73
2019-01-20T11:47:31.000Z,33.00
2019-01-20T11:50:02.195Z,33.37
2019-01-20T11:52:33.659Z,33.57
2019-01-20T12:01:39.425Z,31.23
2019-01-20T12:04:10.563Z,31.30
2019-01-20T12:06:42.023Z,29.60
2019-01-20T12:09:13.162Z,31.23
2019-01-20T12:11:44.472Z,29.57
2019-01-20T12:14:15.577Z,33.00
2019-01-20T12:16:47.015Z,32.50
2019-01-20T12:19:18.167Z,48.83
2019-01-20T12:21:49.604Z,31.17
2019-01-20T12:24:21.116Z,30.00
2019-01-20T12:26:52.601Z,35.97
2019-01-20T12:29:25.558Z,33.50
2019-01-20T12:31:57.066Z,34.17
2019-01-20T12:34:28.166Z,34.70
2019-01-20T12:36:59.356Z,34.50
2019-01-20T12:39:30.547Z,33.23
2019-01-20T12:42:01.840Z,40.60
2019-01-20T12:44:33.349Z,32.37
2019-01-20T12:47:04.729Z,34.77
2019-01-20T12:49:35.821Z,33.93
2019-01-20T12:52:06.956Z,34.13
2019-01-20T12:54:38.029Z,31.60
2019-01-20T12:57:09.362Z,35.00
2019-01-20T12:59:40.508Z,36.37
2019-01-20T13:02:11.904Z,39.10
2019-01-20T13:04:43.062Z,34.50
2019-01-20T13:07:14.409Z,34.67
2019-01-20T13:09:45.477Z,36.93
2019-01-20T13:12:16.812Z,40.67
2019-01-20T13:14:48.028Z,38.47
2019-01-20T13:17:19.389Z,37.63
2019-01-20T13:19:50.478Z,37.00
2019-01-20T13:22:21.995Z,34.40
2019-01-20T13:24:53.128Z,35.93
2019-01-20T13:27:24.361Z,44.33
2019-01-20T13:29:55.439Z,35.67
2019-01-20T13:32:26.791Z,33.60
2019-01-20T13:34:57.868Z,32.87
2019-01-20T13:37:29.227Z,31.70
2019-01-20T13:40:00.586Z,35.07
2019-01-20T13:42:32.279Z,35.77
2019-01-20T13:45:03.390Z,32.70
2019-01-20T13:47:37.744Z,34.17
2019-01-20T13:50:11.650Z,34.90
2019-01-20T13:52:43.105Z,35.63
2019-01-20T13:55:14.481Z,31.10
2019-01-20T13:57:45.797Z,35.00
2019-01-20T14:00:20.971Z,32.43
2019-01-20T14:02:52.607Z,39.60
2019-01-20T14:05:23.716Z,32.40
2019-01-20T14:07:55.195Z,34.40
2019-01-20T14:10:28.565Z,37.80
2019-01-20T14:13:00.245Z,38.83
2019-01-20T14:15:31.530Z,36.27
2019-01-20T14:18:02.938Z,37.53
2019-01-20T14:20:35.015Z,43.73
2019-01-20T14:23:06.475Z,37.40
2019-01-20T14:25:37.865Z,37.10
2019-01-20T14:28:09.106Z,42.20
2019-01-20T14:30:40.275Z,37.60
2019-01-20T14:33:11.560Z,40.73
2019-01-20T14:35:42.894Z,37.27
2019-01-20T14:38:14.152Z,38.50
2019-01-20T14:40:45.515Z,35.57
2019-01-20T14:43:16.847Z,36.13
2019-01-20T14:45:47.970Z,40.00
2019-01-20T14:48:19.600Z,39.93
2019-01-20T14:50:50.978Z,36.37
2019-01-20T14:53:23.439Z,40.57
2019-01-20T14:55:54.779Z,38.07
2019-01-20T14:58:25.962Z,35.87
2019-01-20T15:00:57.120Z,36.83
2019-01-20T15:03:28.500Z,34.80
2019-01-20T15:05:59.596Z,34.60
2019-01-20T15:08:30.961Z,33.57
2019-01-20T15:11:02.125Z,32.83
2019-01-20T15:13:33.404Z,38.70
2019-01-20T15:16:04.519Z,34.17
2019-01-20T15:18:35.854Z,36.57
2019-01-20T15:21:06.969Z,36.53
2019-01-20T15:23:38.651Z,36.97
2019-01-20T15:26:09.767Z,36.20
2019-01-20T15:28:40.982Z,35.83
2019-01-20T15:31:12.180Z,35.77
2019-01-20T15:33:43.349Z,34.00
2019-01-20T15:36:14.586Z,35.17
2019-01-20T15:38:45.848Z,30.90
2019-01-20T15:41:16.961Z,32.33
2019-01-20T15:43:48.521Z,31.40
2019-01-20T15:46:19.658Z,36.57
2019-01-20T15:48:51.007Z,35.50
2019-01-20T15:51:22.079Z,37.20
2019-01-20T15:53:53.397Z,33.50
2019-01-20T15:56:24.522Z,31.80
2019-01-20T15:58:56.005Z,34.87
2019-01-20T16:01:27.078Z,29.57
2019-01-20T16:03:58.497Z,35.90
2019-01-20T16:06:29.753Z,32.93
2019-01-20T16:09:00.945Z,33.00
2019-01-20T16:11:33.635Z,32.37
2019-01-20T16:14:05.031Z,37.43
2019-01-20T16:16:36.176Z,31.60
2019-01-20T16:19:07.737Z,30.87
2019-01-20T16:21:38.920Z,35.43
2019-01-20T16:24:10.313Z,37.17
2019-01-20T16:26:42.126Z,35.63
2019-01-20T16:29:13.438Z,39.40
2019-01-20T16:31:44.515Z,36.57
2019-01-20T16:34:15.821Z,35.20
2019-01-20T16:36:46.907Z,32.00
2019-01-20T16:39:18.322Z,32.10
2019-01-20T16:41:49.450Z,37.40
2019-01-20T16:44:20.672Z,36.60
2019-01-20T16:46:51.828Z,32.37
2019-01-20T16:49:22.984Z,33.67
2019-01-20T16:51:54.097Z,35.80
2019-01-20T16:54:25.296Z,38.37
2019-01-20T16:56:56.610Z,33.73
2019-01-20T16:59:27.853Z,31.80
2019-01-20T17:01:59.000Z,32.50
2019-01-20T17:04:30.274Z,36.03
2019-01-20T17:07:01.399Z,34.90
2019-01-20T17:09:32.566Z,41.90
2019-01-20T17:12:03.696Z,41.17
2019-01-20T17:14:34.966Z,45.50
2019-01-20T17:17:06.086Z,42.50
2019-01-20T17:19:37.378Z,42.60
2019-01-20T17:22:08.499Z,42.50
2019-01-20T17:24:40.671Z,43.20
2019-01-20T17:27:11.732Z,44.33
2019-01-20T17:29:43.144Z,41.80
2019-01-20T17:32:14.245Z,42.50
2019-01-20T17:34:45.534Z,43.67
2019-01-20T17:37:16.624Z,56.20
2019-01-20T17:39:47.931Z,44.03
2019-01-20T17:42:19.072Z,40.47
2019-01-20T17:44:50.522Z,41.63
2019-01-20T17:47:21.613Z,41.37
2019-01-20T17:49:53.034Z,43.97
2019-01-20T17:52:24.240Z,39.37
2019-01-20T17:54:55.535Z,38.27
2019-01-20T17:57:26.644Z,39.57
2019-01-20T17:59:58.042Z,36.13
2019-01-20T18:02:29.280Z,36.73
2019-01-20T18:05:14.276Z,43.20
2019-01-20T18:07:45.390Z,40.40
2019-01-20T18:10:16.936Z,49.90
2019-01-20T18:12:48.174Z,51.07
2019-01-20T18:15:20.261Z,48.77
2019-01-20T18:17:51.422Z,46.37
2019-01-20T18:20:24.528Z,43.27
2019-01-20T18:22:55.634Z,44.53
2019-01-20T18:25:27.056Z,46.97
2019-01-20T18:27:58.209Z,43.40
2019-01-20T18:30:30.488Z,42.47
2019-01-20T18:33:01.636Z,42.27
2019-01-20T18:35:33.176Z,43.87
2019-01-20T18:38:04.507Z,40.60
2019-01-20T18:40:35.904Z,53.63
2019-01-20T18:43:07.257Z,46.53
2019-01-20T18:45:38.788Z,47.47
2019-01-20T18:48:09.976Z,48.90
2019-01-20T18:50:41.392Z,45.30
2019-01-20T18:53:12.549Z,51.13
2019-01-20T18:55:43.830Z,57.53
2019-01-20T18:58:15.248Z,48.43
2019-01-20T19:00:50.121Z,51.53
2019-01-20T19:03:21.345Z,50.87
2019-01-20T19:05:52.992Z,50.87
2019-01-20T19:08:24.256Z,47.23
2019-01-20T19:10:55.545Z,48.00
2019-01-20T19:13:26.818Z,51.50
2019-01-20T19:15:58.287Z,52.90
2019-01-20T19:18:29.612Z,55.63
2019-01-20T19:21:00.908Z,53.97
2019-01-20T19:23:32.108Z,54.07
2019-01-20T19:26:03.320Z,55.90
2019-01-20T19:28:34.556Z,48.63
2019-01-20T19:31:05.802Z,50.90
2019-01-20T19:33:37.134Z,51.93
2019-01-20T19:36:08.825Z,52.10
2019-01-20T19:38:40.163Z,51.03
2019-01-20T19:41:11.691Z,54.87
2019-01-20T19:43:42.870Z,51.50
2019-01-20T19:46:16.397Z,59.83
2019-01-20T19:48:47.337Z,55.00
2019-01-20T19:51:18.925Z,64.90
2019-01-20T19:53:50.093Z,58.37
2019-01-20T19:56:21.807Z,62.63
2019-01-20T19:58:53.004Z,55.80
2019-01-20T20:01:30.776Z,58.30
2019-01-20T20:03:58.214Z,59.97
2019-01-20T20:06:29.706Z,56.67
2019-01-20T20:09:00.951Z,53.97
2019-01-20T20:11:33.904Z,62.20
2019-01-20T20:14:05.220Z,58.00
2019-01-20T20:16:36.814Z,55.23
2019-01-20T20:19:08.934Z,63.13
2019-01-20T20:21:41.156Z,57.03
2019-01-20T20:24:12.297Z,63.07
2019-01-20T20:26:43.654Z,61.50
2019-01-20T20:29:14.762Z,60.67
2019-01-20T20:31:46.348Z,69.40
2019-01-20T20:34:17.486Z,67.13
2019-01-20T20:36:48.960Z,67.67
2019-01-20T20:39:20.212Z,60.53
2019-01-20T20:41:51.634Z,66.07
2019-01-20T20:44:23.142Z,61.90
2019-01-20T20:46:54.528Z,61.43
2019-01-20T20:49:25.721Z,62.20
2019-01-20T20:51:57.138Z,66.80
2019-01-20T20:54:28.455Z,62.23
2019-01-20T20:56:59.887Z,62.40
2019-01-20T20:59:31.062Z,70.77
2019-01-20T21:02:02.536Z,67.10
2019-01-20T21:04:34.812Z,61.23
2019-01-20T21:07:06.352Z,62.53
2019-01-20T21:09:37.573Z,60.73
2019-01-20T21:12:08.943Z,62.00
2019-01-20T21:14:40.194Z,65.30
2019-01-20T21:17:11.580Z,67.00
2019-01-20T21:19:46.090Z,63.00
2019-01-20T21:22:17.467Z,63.30
2019-01-20T21:24:48.739Z,54.37
2019-01-20T21:27:20.120Z,63.43
2019-01-20T21:29:51.255Z,65.60
2019-01-20T21:32:22.490Z,61.67
2019-01-20T21:34:53.758Z,68.70
2019-01-20T21:37:25.102Z,61.37
2019-01-20T21:39:56.414Z,60.47
2019-01-20T21:42:27.808Z,59.10
2019-01-20T21:44:59.082Z,58.67
2019-01-20T21:47:30.524Z,59.20
2019-01-20T21:50:01.765Z,64.63
2019-01-20T21:52:33.066Z,60.13
2019-01-20T21:55:04.676Z,64.77
2019-01-20T21:57:36.208Z,57.03
2019-01-20T22:00:09.966Z,55.00
2019-01-20T22:02:41.502Z,59.57
2019-01-20T22:05:12.657Z,57.90
2019-01-20T22:07:44.112Z,55.07
2019-01-20T22:10:17.232Z,56.50
2019-01-20T22:12:48.913Z,55.50
2019-01-20T22:15:20.253Z,55.17
2019-01-20T22:17:51.706Z,54.27
2019-01-20T22:20:23.920Z,57.60
2019-01-20T22:22:55.602Z,65.57
2019-01-20T22:25:26.862Z,65.20
2019-01-20T22:27:58.180Z,59.73
2019-01-20T22:30:29.493Z,55.80
2019-01-20T22:33:00.990Z,56.00
2019-01-20T22:35:32.143Z,55.63
2019-01-20T22:38:03.455Z,53.63
2019-01-20T22:40:34.720Z,53.50
2019-01-20T22:43:06.230Z,56.90
2019-01-20T22:45:37.332Z,61.37
2019-01-20T22:48:08.610Z,60.97
2019-01-20T22:50:39.907Z,61.63
2019-01-20T22:53:11.305Z,56.60
2019-01-20T22:55:42.403Z,56.90
2019-01-20T22:58:13.809Z,58.90
2019-01-20T23:00:54.294Z,60.37
2019-01-20T23:03:27.736Z,64.87
2019-01-20T23:05:59.538Z,62.13
2019-01-20T23:08:30.894Z,67.20
2019-01-20T23:11:02.132Z,70.70
2019-01-20T23:13:33.373Z,63.17
2019-01-20T23:16:04.572Z,60.13
2019-01-20T23:18:35.734Z,59.27
2019-01-20T23:21:06.991Z,62.13
2019-01-20T23:23:38.263Z,58.13
2019-01-20T23:26:09.383Z,54.13
2019-01-20T23:28:40.913Z,53.13
2019-01-20T23:31:12.126Z,53.27
2019-01-20T23:33:43.458Z,53.30
2019-01-20T23:36:14.979Z,55.40
2019-01-20T23:38:46.363Z,51.60
2019-01-20T23:41:17.517Z,56.23
2019-01-20T23:44:08.146Z,58.70
2019-01-20T23:46:39.221Z,52.97
2019-01-20T23:49:10.597Z,55.77
2019-01-20T23:51:41.688Z,55.27
2019-01-20T23:54:13.042Z,53.90
2019-01-20T23:56:44.159Z,57.43
2019-01-20T23:59:15.583Z,58.63
